sensor_id;sensor_type;location;lat;lon;timestamp;P1;durP1;ratioP1;P2;durP2;ratioP2
77466;SDS011;66564;42.482;25.548;2024-02-04T00:02:07;6.07;;;4.38;;
77466;SDS011;66564;42.482;25.548;2024-02-04T00:04:34;5.88;;;3.90;;
77466;SDS011;66564;42.482;25.548;2024-02-04T00:07:01;6.10;;;3.58;;
77466;SDS011;66564;42.482;25.548;2024-02-04T00:09:26;8.13;;;4.43;;
77466;SDS011;66564;42.482;25.548;2024-02-04T00:11:53;10.57;;;4.72;;
77466;SDS011;66564;42.482;25.548;2024-02-04T00:14:19;6.45;;;4.30;;
77466;SDS011;66564;42.482;25.548;2024-02-04T00:16:44;5.72;;;4.20;;
77466;SDS011;66564;42.482;25.548;2024-02-04T00:19:10;6.85;;;4.32;;
77466;SDS011;66564;42.482;25.548;2024-02-04T00:21:35;5.55;;;3.90;;
77466;SDS011;66564;42.482;25.548;2024-02-04T00:24:01;6.60;;;4.05;;
77466;SDS011;66564;42.482;25.548;2024-02-04T00:26:32;5.70;;;4.38;;
77466;SDS011;66564;42.482;25.548;2024-02-04T00:29:00;6.15;;;4.25;;
77466;SDS011;66564;42.482;25.548;2024-02-04T00:31:26;7.75;;;4.50;;
77466;SDS011;66564;42.482;25.548;2024-02-04T00:33:51;5.80;;;3.95;;
77466;SDS011;66564;42.482;25.548;2024-02-04T00:36:20;5.75;;;3.78;;
77466;SDS011;66564;42.482;25.548;2024-02-04T00:38:49;5.78;;;3.90;;
77466;SDS011;66564;42.482;25.548;2024-02-04T00:41:16;6.53;;;4.50;;
77466;SDS011;66564;42.482;25.548;2024-02-04T00:43:41;5.18;;;4.13;;
77466;SDS011;66564;42.482;25.548;2024-02-04T00:46:07;6.70;;;3.83;;
77466;SDS011;66564;42.482;25.548;2024-02-04T00:48:38;6.38;;;4.53;;
77466;SDS011;66564;42.482;25.548;2024-02-04T00:53:30;16.67;;;5.32;;
77466;SDS011;66564;42.482;25.548;2024-02-04T00:56:02;8.50;;;4.75;;
77466;SDS011;66564;42.482;25.548;2024-02-04T00:58:29;22.95;;;4.45;;
77466;SDS011;66564;42.482;25.548;2024-02-04T01:00:54;8.57;;;4.28;;
77466;SDS011;66564;42.482;25.548;2024-02-04T01:03:20;6.32;;;4.63;;
77466;SDS011;66564;42.482;25.548;2024-02-04T01:05:47;6.88;;;4.57;;
77466;SDS011;66564;42.482;25.548;2024-02-04T01:08:13;5.80;;;4.40;;
77466;SDS011;66564;42.482;25.548;2024-02-04T01:10:41;6.85;;;4.75;;
77466;SDS011;66564;42.482;25.548;2024-02-04T01:13:09;8.27;;;4.65;;
77466;SDS011;66564;42.482;25.548;2024-02-04T01:15:40;13.48;;;5.30;;
77466;SDS011;66564;42.482;25.548;2024-02-04T01:18:06;6.78;;;4.90;;
77466;SDS011;66564;42.482;25.548;2024-02-04T01:20:31;10.35;;;4.90;;
77466;SDS011;66564;42.482;25.548;2024-02-04T01:22:59;7.22;;;5.13;;
77466;SDS011;66564;42.482;25.548;2024-02-04T01:25:25;8.77;;;5.13;;
77466;SDS011;66564;42.482;25.548;2024-02-04T01:27:53;7.70;;;5.22;;
77466;SDS011;66564;42.482;25.548;2024-02-04T01:30:19;11.02;;;4.72;;
77466;SDS011;66564;42.482;25.548;2024-02-04T01:32:44;7.07;;;4.65;;
77466;SDS011;66564;42.482;25.548;2024-02-04T01:35:12;5.53;;;4.53;;
77466;SDS011;66564;42.482;25.548;2024-02-04T01:37:37;6.90;;;4.68;;
77466;SDS011;66564;42.482;25.548;2024-02-04T01:40:03;5.75;;;4.32;;
77466;SDS011;66564;42.482;25.548;2024-02-04T01:42:33;6.90;;;4.47;;
77466;SDS011;66564;42.482;25.548;2024-02-04T01:44:59;6.35;;;4.40;;
77466;SDS011;66564;42.482;25.548;2024-02-04T01:47:25;6.55;;;5.03;;
77466;SDS011;66564;42.482;25.548;2024-02-04T01:49:53;7.38;;;4.07;;
77466;SDS011;66564;42.482;25.548;2024-02-04T01:52:19;6.60;;;4.05;;
77466;SDS011;66564;42.482;25.548;2024-02-04T01:54:44;7.68;;;3.80;;
77466;SDS011;66564;42.482;25.548;2024-02-04T01:57:10;9.73;;;4.30;;
77466;SDS011;66564;42.482;25.548;2024-02-04T01:59:36;6.90;;;4.07;;
77466;SDS011;66564;42.482;25.548;2024-02-04T02:02:04;7.60;;;4.93;;
77466;SDS011;66564;42.482;25.548;2024-02-04T02:04:30;7.43;;;4.40;;
77466;SDS011;66564;42.482;25.548;2024-02-04T02:06:56;8.63;;;5.28;;
77466;SDS011;66564;42.482;25.548;2024-02-04T02:09:24;8.82;;;4.90;;
77466;SDS011;66564;42.482;25.548;2024-02-04T02:11:54;8.73;;;5.97;;
77466;SDS011;66564;42.482;25.548;2024-02-04T02:14:27;6.15;;;4.80;;
77466;SDS011;66564;42.482;25.548;2024-02-04T02:16:57;9.65;;;5.72;;
77466;SDS011;66564;42.482;25.548;2024-02-04T02:22:36;7.50;;;4.93;;
77466;SDS011;66564;42.482;25.548;2024-02-04T02:24:55;7.18;;;5.25;;
77466;SDS011;66564;42.482;25.548;2024-02-04T02:27:22;8.43;;;5.50;;
77466;SDS011;66564;42.482;25.548;2024-02-04T02:29:53;8.45;;;5.57;;
77466;SDS011;66564;42.482;25.548;2024-02-04T02:32:18;8.18;;;5.18;;
77466;SDS011;66564;42.482;25.548;2024-02-04T02:34:47;7.50;;;5.30;;
77466;SDS011;66564;42.482;25.548;2024-02-04T02:43:04;6.70;;;4.70;;
77466;SDS011;66564;42.482;25.548;2024-02-04T02:45:30;8.18;;;5.78;;
77466;SDS011;66564;42.482;25.548;2024-02-04T02:47:59;6.95;;;5.13;;
77466;SDS011;66564;42.482;25.548;2024-02-04T02:50:26;6.60;;;5.30;;
77466;SDS011;66564;42.482;25.548;2024-02-04T02:52:55;7.18;;;5.47;;
77466;SDS011;66564;42.482;25.548;2024-02-04T02:55:26;8.27;;;5.65;;
77466;SDS011;66564;42.482;25.548;2024-02-04T02:57:54;7.45;;;4.95;;
77466;SDS011;66564;42.482;25.548;2024-02-04T03:00:25;8.57;;;5.20;;
77466;SDS011;66564;42.482;25.548;2024-02-04T03:02:51;6.78;;;5.40;;
77466;SDS011;66564;42.482;25.548;2024-02-04T03:05:18;8.90;;;6.32;;
77466;SDS011;66564;42.482;25.548;2024-02-04T03:07:44;7.35;;;5.65;;
77466;SDS011;66564;42.482;25.548;2024-02-04T03:10:09;7.70;;;5.07;;
77466;SDS011;66564;42.482;25.548;2024-02-04T03:12:35;8.00;;;4.72;;
77466;SDS011;66564;42.482;25.548;2024-02-04T03:15:00;8.32;;;5.18;;
77466;SDS011;66564;42.482;25.548;2024-02-04T03:17:26;6.05;;;4.88;;
77466;SDS011;66564;42.482;25.548;2024-02-04T03:19:52;5.88;;;4.95;;
77466;SDS011;66564;42.482;25.548;2024-02-04T03:22:22;6.93;;;5.30;;
77466;SDS011;66564;42.482;25.548;2024-02-04T03:24:48;10.13;;;4.72;;
77466;SDS011;66564;42.482;25.548;2024-02-04T03:27:14;7.95;;;5.72;;
77466;SDS011;66564;42.482;25.548;2024-02-04T03:29:40;7.75;;;5.45;;
77466;SDS011;66564;42.482;25.548;2024-02-04T03:32:10;7.25;;;5.07;;
77466;SDS011;66564;42.482;25.548;2024-02-04T03:34:36;6.93;;;5.15;;
77466;SDS011;66564;42.482;25.548;2024-02-04T03:37:01;5.50;;;4.60;;
77466;SDS011;66564;42.482;25.548;2024-02-04T03:39:27;7.45;;;4.78;;
77466;SDS011;66564;42.482;25.548;2024-02-04T03:41:52;6.53;;;4.55;;
77466;SDS011;66564;42.482;25.548;2024-02-04T03:44:18;5.65;;;5.05;;
77466;SDS011;66564;42.482;25.548;2024-02-04T03:46:43;6.82;;;5.55;;
77466;SDS011;66564;42.482;25.548;2024-02-04T03:49:13;7.63;;;5.15;;
77466;SDS011;66564;42.482;25.548;2024-02-04T03:51:39;5.95;;;4.90;;
77466;SDS011;66564;42.482;25.548;2024-02-04T03:54:04;7.40;;;4.78;;
77466;SDS011;66564;42.482;25.548;2024-02-04T03:56:35;7.03;;;5.30;;
77466;SDS011;66564;42.482;25.548;2024-02-04T03:59:00;7.30;;;5.20;;
77466;SDS011;66564;42.482;25.548;2024-02-04T04:01:31;7.35;;;5.28;;
77466;SDS011;66564;42.482;25.548;2024-02-04T04:03:57;7.10;;;4.85;;
77466;SDS011;66564;42.482;25.548;2024-02-04T04:06:22;8.00;;;5.47;;
77466;SDS011;66564;42.482;25.548;2024-02-04T04:08:51;6.70;;;4.65;;
77466;SDS011;66564;42.482;25.548;2024-02-04T04:11:19;7.07;;;4.88;;
77466;SDS011;66564;42.482;25.548;2024-02-04T04:13:44;7.18;;;4.97;;
77466;SDS011;66564;42.482;25.548;2024-02-04T04:16:10;6.40;;;4.63;;
77466;SDS011;66564;42.482;25.548;2024-02-04T04:18:35;6.22;;;4.70;;
77466;SDS011;66564;42.482;25.548;2024-02-04T04:21:01;5.78;;;4.53;;
77466;SDS011;66564;42.482;25.548;2024-02-04T04:23:26;6.78;;;4.90;;
77466;SDS011;66564;42.482;25.548;2024-02-04T04:25:52;6.28;;;4.78;;
77466;SDS011;66564;42.482;25.548;2024-02-04T04:28:20;6.40;;;4.30;;
77466;SDS011;66564;42.482;25.548;2024-02-04T04:30:45;5.82;;;4.20;;
77466;SDS011;66564;42.482;25.548;2024-02-04T04:33:11;4.90;;;4.10;;
77466;SDS011;66564;42.482;25.548;2024-02-04T04:35:37;5.03;;;4.13;;
77466;SDS011;66564;42.482;25.548;2024-02-04T04:38:03;5.15;;;4.20;;
77466;SDS011;66564;42.482;25.548;2024-02-04T04:40:28;6.57;;;4.53;;
77466;SDS011;66564;42.482;25.548;2024-02-04T04:42:57;7.63;;;4.90;;
77466;SDS011;66564;42.482;25.548;2024-02-04T04:45:24;6.07;;;4.30;;
77466;SDS011;66564;42.482;25.548;2024-02-04T04:47:52;5.78;;;4.45;;
77466;SDS011;66564;42.482;25.548;2024-02-04T04:50:18;5.88;;;3.95;;
77466;SDS011;66564;42.482;25.548;2024-02-04T04:52:43;6.28;;;4.05;;
77466;SDS011;66564;42.482;25.548;2024-02-04T04:55:12;4.55;;;3.65;;
77466;SDS011;66564;42.482;25.548;2024-02-04T04:57:37;6.07;;;4.25;;
77466;SDS011;66564;42.482;25.548;2024-02-04T05:00:03;6.45;;;4.15;;
77466;SDS011;66564;42.482;25.548;2024-02-04T05:02:31;6.07;;;4.15;;
77466;SDS011;66564;42.482;25.548;2024-02-04T05:05:00;5.70;;;3.97;;
77466;SDS011;66564;42.482;25.548;2024-02-04T05:07:25;6.53;;;4.10;;
77466;SDS011;66564;42.482;25.548;2024-02-04T05:09:52;7.32;;;4.53;;
77466;SDS011;66564;42.482;25.548;2024-02-04T05:12:19;7.18;;;4.40;;
77466;SDS011;66564;42.482;25.548;2024-02-04T05:14:45;6.90;;;4.35;;
77466;SDS011;66564;42.482;25.548;2024-02-04T05:17:11;5.90;;;4.30;;
77466;SDS011;66564;42.482;25.548;2024-02-04T05:19:36;5.78;;;3.78;;
77466;SDS011;66564;42.482;25.548;2024-02-04T05:22:02;6.90;;;5.00;;
77466;SDS011;66564;42.482;25.548;2024-02-04T05:24:30;7.82;;;4.30;;
77466;SDS011;66564;42.482;25.548;2024-02-04T05:26:56;6.18;;;4.35;;
77466;SDS011;66564;42.482;25.548;2024-02-04T05:29:21;6.43;;;4.25;;
77466;SDS011;66564;42.482;25.548;2024-02-04T05:31:47;6.45;;;4.43;;
77466;SDS011;66564;42.482;25.548;2024-02-04T05:34:14;6.75;;;4.60;;
77466;SDS011;66564;42.482;25.548;2024-02-04T05:36:43;6.78;;;4.53;;
77466;SDS011;66564;42.482;25.548;2024-02-04T05:39:09;6.03;;;4.30;;
77466;SDS011;66564;42.482;25.548;2024-02-04T05:41:36;5.15;;;4.05;;
77466;SDS011;66564;42.482;25.548;2024-02-04T05:44:09;5.97;;;4.53;;
77466;SDS011;66564;42.482;25.548;2024-02-04T05:46:38;5.65;;;3.92;;
77466;SDS011;66564;42.482;25.548;2024-02-04T05:49:03;5.72;;;3.67;;
77466;SDS011;66564;42.482;25.548;2024-02-04T05:51:31;6.63;;;4.28;;
77466;SDS011;66564;42.482;25.548;2024-02-04T05:53:58;5.28;;;4.00;;
77466;SDS011;66564;42.482;25.548;2024-02-04T05:56:23;6.57;;;4.40;;
77466;SDS011;66564;42.482;25.548;2024-02-04T05:58:49;5.97;;;3.90;;
77466;SDS011;66564;42.482;25.548;2024-02-04T06:01:17;6.13;;;4.25;;
77466;SDS011;66564;42.482;25.548;2024-02-04T06:03:43;5.28;;;3.78;;
77466;SDS011;66564;42.482;25.548;2024-02-04T06:06:09;5.88;;;4.22;;
77466;SDS011;66564;42.482;25.548;2024-02-04T06:08:39;9.35;;;4.10;;
77466;SDS011;66564;42.482;25.548;2024-02-04T06:11:05;4.85;;;3.90;;
77466;SDS011;66564;42.482;25.548;2024-02-04T06:13:30;6.13;;;4.43;;
77466;SDS011;66564;42.482;25.548;2024-02-04T06:15:56;4.85;;;3.45;;
77466;SDS011;66564;42.482;25.548;2024-02-04T06:18:21;4.47;;;3.70;;
77466;SDS011;66564;42.482;25.548;2024-02-04T06:20:47;3.67;;;3.25;;
77466;SDS011;66564;42.482;25.548;2024-02-04T06:23:12;6.32;;;3.63;;
77466;SDS011;66564;42.482;25.548;2024-02-04T06:25:37;5.55;;;3.58;;
77466;SDS011;66564;42.482;25.548;2024-02-04T06:28:05;5.63;;;3.25;;
77466;SDS011;66564;42.482;25.548;2024-02-04T06:30:34;5.13;;;3.42;;
77466;SDS011;66564;42.482;25.548;2024-02-04T06:32:59;4.90;;;3.80;;
77466;SDS011;66564;42.482;25.548;2024-02-04T06:35:25;4.82;;;3.65;;
77466;SDS011;66564;42.482;25.548;2024-02-04T06:37:50;4.30;;;3.42;;
77466;SDS011;66564;42.482;25.548;2024-02-04T06:40:16;6.20;;;3.58;;
77466;SDS011;66564;42.482;25.548;2024-02-04T06:42:41;5.93;;;3.70;;
77466;SDS011;66564;42.482;25.548;2024-02-04T06:45:07;4.90;;;3.47;;
77466;SDS011;66564;42.482;25.548;2024-02-04T06:47:33;4.60;;;3.35;;
77466;SDS011;66564;42.482;25.548;2024-02-04T06:49:58;11.48;;;3.65;;
77466;SDS011;66564;42.482;25.548;2024-02-04T06:52:23;4.40;;;3.63;;
77466;SDS011;66564;42.482;25.548;2024-02-04T06:54:49;4.95;;;3.85;;
77466;SDS011;66564;42.482;25.548;2024-02-04T06:57:17;4.57;;;3.70;;
77466;SDS011;66564;42.482;25.548;2024-02-04T06:59:43;4.65;;;3.28;;
77466;SDS011;66564;42.482;25.548;2024-02-04T07:02:09;8.00;;;3.58;;
77466;SDS011;66564;42.482;25.548;2024-02-04T07:04:35;28.23;;;5.00;;
77466;SDS011;66564;42.482;25.548;2024-02-04T07:07:00;11.80;;;3.45;;
77466;SDS011;66564;42.482;25.548;2024-02-04T07:09:26;8.60;;;3.75;;
77466;SDS011;66564;42.482;25.548;2024-02-04T07:11:51;6.78;;;3.50;;
77466;SDS011;66564;42.482;25.548;2024-02-04T07:14:20;9.93;;;3.60;;
77466;SDS011;66564;42.482;25.548;2024-02-04T07:16:46;5.50;;;3.22;;
77466;SDS011;66564;42.482;25.548;2024-02-04T07:19:12;5.05;;;3.20;;
77466;SDS011;66564;42.482;25.548;2024-02-04T07:21:37;4.60;;;3.58;;
77466;SDS011;66564;42.482;25.548;2024-02-04T07:24:03;5.25;;;3.30;;
77466;SDS011;66564;42.482;25.548;2024-02-04T07:26:28;5.05;;;3.70;;
77466;SDS011;66564;42.482;25.548;2024-02-04T07:28:56;5.70;;;3.80;;
77466;SDS011;66564;42.482;25.548;2024-02-04T07:31:27;6.05;;;3.88;;
77466;SDS011;66564;42.482;25.548;2024-02-04T07:33:53;13.30;;;4.30;;
77466;SDS011;66564;42.482;25.548;2024-02-04T07:36:18;4.20;;;3.78;;
77466;SDS011;66564;42.482;25.548;2024-02-04T07:38:44;21.13;;;5.55;;
77466;SDS011;66564;42.482;25.548;2024-02-04T07:41:15;10.95;;;4.35;;
77466;SDS011;66564;42.482;25.548;2024-02-04T07:43:41;11.77;;;4.68;;
77466;SDS011;66564;42.482;25.548;2024-02-04T07:46:08;5.68;;;4.00;;
77466;SDS011;66564;42.482;25.548;2024-02-04T07:48:34;10.18;;;4.90;;
77466;SDS011;66564;42.482;25.548;2024-02-04T07:51:05;9.48;;;5.10;;
77466;SDS011;66564;42.482;25.548;2024-02-04T07:53:31;6.82;;;4.35;;
77466;SDS011;66564;42.482;25.548;2024-02-04T07:56:01;17.55;;;4.57;;
77466;SDS011;66564;42.482;25.548;2024-02-04T07:58:28;5.70;;;3.90;;
77466;SDS011;66564;42.482;25.548;2024-02-04T08:00:54;13.52;;;4.32;;
77466;SDS011;66564;42.482;25.548;2024-02-04T08:03:20;7.53;;;3.97;;
77466;SDS011;66564;42.482;25.548;2024-02-04T08:05:45;7.97;;;4.30;;
77466;SDS011;66564;42.482;25.548;2024-02-04T08:08:11;5.55;;;4.20;;
77466;SDS011;66564;42.482;25.548;2024-02-04T08:10:37;21.85;;;4.78;;
77466;SDS011;66564;42.482;25.548;2024-02-04T08:13:05;5.95;;;4.15;;
77466;SDS011;66564;42.482;25.548;2024-02-04T08:15:33;5.80;;;4.30;;
77466;SDS011;66564;42.482;25.548;2024-02-04T08:17:59;6.32;;;4.22;;
77466;SDS011;66564;42.482;25.548;2024-02-04T08:20:27;5.72;;;3.85;;
77466;SDS011;66564;42.482;25.548;2024-02-04T08:22:53;5.53;;;3.70;;
77466;SDS011;66564;42.482;25.548;2024-02-04T08:25:19;4.00;;;3.08;;
77466;SDS011;66564;42.482;25.548;2024-02-04T08:27:45;5.03;;;3.85;;
77466;SDS011;66564;42.482;25.548;2024-02-04T08:30:11;5.25;;;3.30;;
77466;SDS011;66564;42.482;25.548;2024-02-04T08:32:38;5.65;;;3.53;;
77466;SDS011;66564;42.482;25.548;2024-02-04T08:35:04;8.15;;;3.58;;
77466;SDS011;66564;42.482;25.548;2024-02-04T08:37:30;6.90;;;3.33;;
77466;SDS011;66564;42.482;25.548;2024-02-04T08:39:57;4.85;;;2.80;;
77466;SDS011;66564;42.482;25.548;2024-02-04T08:42:25;4.47;;;2.92;;
77466;SDS011;66564;42.482;25.548;2024-02-04T08:44:51;4.68;;;3.03;;
77466;SDS011;66564;42.482;25.548;2024-02-04T08:47:16;4.45;;;3.17;;
77466;SDS011;66564;42.482;25.548;2024-02-04T08:49:43;3.58;;;3.05;;
77466;SDS011;66564;42.482;25.548;2024-02-04T08:52:08;4.18;;;2.65;;
77466;SDS011;66564;42.482;25.548;2024-02-04T08:54:34;5.03;;;3.20;;
77466;SDS011;66564;42.482;25.548;2024-02-04T08:57:00;4.78;;;2.85;;
77466;SDS011;66564;42.482;25.548;2024-02-04T08:59:25;3.47;;;2.35;;
77466;SDS011;66564;42.482;25.548;2024-02-04T09:01:50;3.13;;;2.53;;
77466;SDS011;66564;42.482;25.548;2024-02-04T09:04:16;4.55;;;2.47;;
77466;SDS011;66564;42.482;25.548;2024-02-04T09:06:41;3.03;;;2.20;;
77466;SDS011;66564;42.482;25.548;2024-02-04T09:09:07;3.22;;;2.20;;
77466;SDS011;66564;42.482;25.548;2024-02-04T09:11:34;2.72;;;2.10;;
77466;SDS011;66564;42.482;25.548;2024-02-04T09:13:59;3.10;;;2.33;;
77466;SDS011;66564;42.482;25.548;2024-02-04T09:16:25;3.05;;;2.20;;
77466;SDS011;66564;42.482;25.548;2024-02-04T09:18:50;5.13;;;2.30;;
77466;SDS011;66564;42.482;25.548;2024-02-04T09:21:16;3.25;;;2.45;;
77466;SDS011;66564;42.482;25.548;2024-02-04T09:23:41;8.15;;;2.35;;
77466;SDS011;66564;42.482;25.548;2024-02-04T09:26:07;3.20;;;2.00;;
77466;SDS011;66564;42.482;25.548;2024-02-04T09:28:33;3.92;;;2.20;;
77466;SDS011;66564;42.482;25.548;2024-02-04T09:30:59;3.40;;;2.10;;
77466;SDS011;66564;42.482;25.548;2024-02-04T09:33:28;3.05;;;1.92;;
77466;SDS011;66564;42.482;25.548;2024-02-04T09:35:54;4.07;;;2.40;;
77466;SDS011;66564;42.482;25.548;2024-02-04T09:38:20;5.25;;;2.60;;
77466;SDS011;66564;42.482;25.548;2024-02-04T09:40:45;2.97;;;2.10;;
77466;SDS011;66564;42.482;25.548;2024-02-04T09:43:11;3.42;;;2.17;;
77466;SDS011;66564;42.482;25.548;2024-02-04T09:45:37;3.10;;;2.22;;
77466;SDS011;66564;42.482;25.548;2024-02-04T09:48:04;5.50;;;2.00;;
77466;SDS011;66564;42.482;25.548;2024-02-04T09:50:33;5.32;;;2.40;;
77466;SDS011;66564;42.482;25.548;2024-02-04T09:52:59;2.60;;;2.08;;
77466;SDS011;66564;42.482;25.548;2024-02-04T09:55:28;2.75;;;1.95;;
77466;SDS011;66564;42.482;25.548;2024-02-04T09:57:55;3.42;;;2.20;;
77466;SDS011;66564;42.482;25.548;2024-02-04T10:00:21;3.25;;;2.17;;
77466;SDS011;66564;42.482;25.548;2024-02-04T10:02:49;2.70;;;1.90;;
77466;SDS011;66564;42.482;25.548;2024-02-04T10:05:15;2.67;;;2.08;;
77466;SDS011;66564;42.482;25.548;2024-02-04T10:07:41;4.00;;;2.35;;
77466;SDS011;66564;42.482;25.548;2024-02-04T10:10:06;3.15;;;2.42;;
77466;SDS011;66564;42.482;25.548;2024-02-04T10:12:33;3.90;;;2.17;;
77466;SDS011;66564;42.482;25.548;2024-02-04T10:15:00;5.45;;;2.10;;
77466;SDS011;66564;42.482;25.548;2024-02-04T10:17:27;2.67;;;2.08;;
77466;SDS011;66564;42.482;25.548;2024-02-04T10:19:53;2.85;;;2.00;;
77466;SDS011;66564;42.482;25.548;2024-02-04T10:22:19;3.95;;;2.15;;
77466;SDS011;66564;42.482;25.548;2024-02-04T10:24:44;2.95;;;1.90;;
77466;SDS011;66564;42.482;25.548;2024-02-04T10:27:12;6.05;;;2.10;;
77466;SDS011;66564;42.482;25.548;2024-02-04T10:29:42;6.53;;;2.05;;
77466;SDS011;66564;42.482;25.548;2024-02-04T10:32:08;9.55;;;3.40;;
77466;SDS011;66564;42.482;25.548;2024-02-04T10:34:36;9.82;;;2.13;;
77466;SDS011;66564;42.482;25.548;2024-02-04T10:37:04;12.98;;;3.13;;
77466;SDS011;66564;42.482;25.548;2024-02-04T10:39:30;38.83;;;7.55;;
77466;SDS011;66564;42.482;25.548;2024-02-04T10:41:55;11.43;;;3.75;;
77466;SDS011;66564;42.482;25.548;2024-02-04T10:44:26;24.65;;;5.55;;
77466;SDS011;66564;42.482;25.548;2024-02-04T10:46:56;19.13;;;5.03;;
77466;SDS011;66564;42.482;25.548;2024-02-04T10:49:23;19.10;;;5.80;;
77466;SDS011;66564;42.482;25.548;2024-02-04T10:51:51;11.77;;;3.63;;
77466;SDS011;66564;42.482;25.548;2024-02-04T10:54:21;7.22;;;2.92;;
77466;SDS011;66564;42.482;25.548;2024-02-04T10:56:52;18.73;;;3.65;;
77466;SDS011;66564;42.482;25.548;2024-02-04T10:59:26;9.10;;;2.92;;
77466;SDS011;66564;42.482;25.548;2024-02-04T11:01:55;19.45;;;3.88;;
77466;SDS011;66564;42.482;25.548;2024-02-04T11:04:21;5.38;;;3.03;;
77466;SDS011;66564;42.482;25.548;2024-02-04T11:06:48;3.15;;;2.30;;
77466;SDS011;66564;42.482;25.548;2024-02-04T11:09:14;4.25;;;2.70;;
77466;SDS011;66564;42.482;25.548;2024-02-04T11:11:41;3.47;;;2.10;;
77466;SDS011;66564;42.482;25.548;2024-02-04T11:14:17;7.43;;;4.03;;
77466;SDS011;66564;42.482;25.548;2024-02-04T11:24:44;4.03;;;2.40;;
77466;SDS011;66564;42.482;25.548;2024-02-04T11:27:33;2.85;;;1.83;;
77466;SDS011;66564;42.482;25.548;2024-02-04T11:29:59;3.53;;;2.30;;
77466;SDS011;66564;42.482;25.548;2024-02-04T11:32:29;29.88;;;3.95;;
77466;SDS011;66564;42.482;25.548;2024-02-04T11:34:55;5.68;;;2.10;;
77466;SDS011;66564;42.482;25.548;2024-02-04T11:37:20;5.05;;;2.33;;
77466;SDS011;66564;42.482;25.548;2024-02-04T11:39:52;5.35;;;1.83;;
77466;SDS011;66564;42.482;25.548;2024-02-04T11:42:19;2.75;;;2.08;;
77466;SDS011;66564;42.482;25.548;2024-02-04T11:44:47;3.20;;;2.17;;
77466;SDS011;66564;42.482;25.548;2024-02-04T11:47:22;3.80;;;2.50;;
77466;SDS011;66564;42.482;25.548;2024-02-04T11:49:55;3.10;;;2.13;;
77466;SDS011;66564;42.482;25.548;2024-02-04T11:52:22;4.00;;;2.38;;
77466;SDS011;66564;42.482;25.548;2024-02-04T11:54:48;2.42;;;1.85;;
77466;SDS011;66564;42.482;25.548;2024-02-04T11:57:14;3.90;;;2.10;;
77466;SDS011;66564;42.482;25.548;2024-02-04T11:59:40;3.58;;;1.92;;
77466;SDS011;66564;42.482;25.548;2024-02-04T12:02:07;3.05;;;2.20;;
77466;SDS011;66564;42.482;25.548;2024-02-04T12:04:33;3.47;;;2.03;;
77466;SDS011;66564;42.482;25.548;2024-02-04T12:07:02;4.45;;;2.20;;
77466;SDS011;66564;42.482;25.548;2024-02-04T12:09:29;3.42;;;2.28;;
77466;SDS011;66564;42.482;25.548;2024-02-04T12:11:54;3.55;;;2.13;;
77466;SDS011;66564;42.482;25.548;2024-02-04T12:14:20;3.75;;;2.20;;
77466;SDS011;66564;42.482;25.548;2024-02-04T12:16:46;3.22;;;2.22;;
77466;SDS011;66564;42.482;25.548;2024-02-04T12:19:12;4.60;;;2.20;;
77466;SDS011;66564;42.482;25.548;2024-02-04T12:21:37;3.17;;;2.20;;
77466;SDS011;66564;42.482;25.548;2024-02-04T12:24:03;4.43;;;2.38;;
77466;SDS011;66564;42.482;25.548;2024-02-04T12:26:29;3.60;;;2.40;;
77466;SDS011;66564;42.482;25.548;2024-02-04T12:28:55;3.90;;;2.30;;
77466;SDS011;66564;42.482;25.548;2024-02-04T12:31:21;3.72;;;2.60;;
77466;SDS011;66564;42.482;25.548;2024-02-04T12:33:52;3.22;;;2.00;;
77466;SDS011;66564;42.482;25.548;2024-02-04T12:36:19;3.55;;;2.20;;
77466;SDS011;66564;42.482;25.548;2024-02-04T12:38:50;3.47;;;2.33;;
77466;SDS011;66564;42.482;25.548;2024-02-04T12:41:17;3.60;;;1.98;;
77466;SDS011;66564;42.482;25.548;2024-02-04T12:43:42;3.88;;;2.20;;
77466;SDS011;66564;42.482;25.548;2024-02-04T12:46:14;3.40;;;2.10;;
77466;SDS011;66564;42.482;25.548;2024-02-04T12:48:39;3.20;;;2.05;;
77466;SDS011;66564;42.482;25.548;2024-02-04T12:51:05;2.72;;;2.10;;
77466;SDS011;66564;42.482;25.548;2024-02-04T12:53:30;2.45;;;2.10;;
77466;SDS011;66564;42.482;25.548;2024-02-04T12:56:02;3.78;;;2.10;;
77466;SDS011;66564;42.482;25.548;2024-02-04T12:58:27;2.92;;;2.05;;
77466;SDS011;66564;42.482;25.548;2024-02-04T13:01:02;3.33;;;1.90;;
77466;SDS011;66564;42.482;25.548;2024-02-04T13:03:30;3.20;;;1.90;;
77466;SDS011;66564;42.482;25.548;2024-02-04T13:05:58;3.08;;;2.03;;
77466;SDS011;66564;42.482;25.548;2024-02-04T13:08:24;2.40;;;1.75;;
77466;SDS011;66564;42.482;25.548;2024-02-04T13:10:55;2.42;;;1.67;;
77466;SDS011;66564;42.482;25.548;2024-02-04T13:13:22;3.30;;;2.03;;
77466;SDS011;66564;42.482;25.548;2024-02-04T13:15:50;2.45;;;1.70;;
77466;SDS011;66564;42.482;25.548;2024-02-04T13:18:15;3.15;;;1.80;;
77466;SDS011;66564;42.482;25.548;2024-02-04T13:20:41;2.40;;;1.85;;
77466;SDS011;66564;42.482;25.548;2024-02-04T13:23:08;2.78;;;1.85;;
77466;SDS011;66564;42.482;25.548;2024-02-04T13:25:34;2.40;;;1.70;;
77466;SDS011;66564;42.482;25.548;2024-02-04T13:28:00;2.65;;;1.80;;
77466;SDS011;66564;42.482;25.548;2024-02-04T13:30:25;2.83;;;1.80;;
77466;SDS011;66564;42.482;25.548;2024-02-04T13:32:51;6.22;;;2.30;;
77466;SDS011;66564;42.482;25.548;2024-02-04T13:35:17;5.95;;;1.90;;
77466;SDS011;66564;42.482;25.548;2024-02-04T13:37:45;2.63;;;1.83;;
77466;SDS011;66564;42.482;25.548;2024-02-04T13:40:20;4.53;;;2.20;;
77466;SDS011;66564;42.482;25.548;2024-02-04T13:42:46;3.67;;;1.77;;
77466;SDS011;66564;42.482;25.548;2024-02-04T13:45:12;3.45;;;1.90;;
77466;SDS011;66564;42.482;25.548;2024-02-04T13:47:41;6.60;;;2.17;;
77466;SDS011;66564;42.482;25.548;2024-02-04T13:50:07;9.57;;;3.33;;
77466;SDS011;66564;42.482;25.548;2024-02-04T13:52:34;8.57;;;2.28;;
77466;SDS011;66564;42.482;25.548;2024-02-04T13:55:00;10.15;;;2.35;;
77466;SDS011;66564;42.482;25.548;2024-02-04T13:57:25;7.63;;;2.45;;
77466;SDS011;66564;42.482;25.548;2024-02-04T13:59:51;5.07;;;2.03;;
77466;SDS011;66564;42.482;25.548;2024-02-04T14:02:17;2.83;;;2.10;;
77466;SDS011;66564;42.482;25.548;2024-02-04T14:04:42;7.82;;;1.90;;
77466;SDS011;66564;42.482;25.548;2024-02-04T14:07:08;2.85;;;1.92;;
77466;SDS011;66564;42.482;25.548;2024-02-04T14:09:34;4.07;;;1.92;;
77466;SDS011;66564;42.482;25.548;2024-02-04T14:11:59;12.23;;;2.78;;
77466;SDS011;66564;42.482;25.548;2024-02-04T14:14:25;7.13;;;2.00;;
77466;SDS011;66564;42.482;25.548;2024-02-04T14:16:50;2.13;;;1.58;;
77466;SDS011;66564;42.482;25.548;2024-02-04T14:19:16;2.78;;;1.90;;
77466;SDS011;66564;42.482;25.548;2024-02-04T14:21:42;3.22;;;1.90;;
77466;SDS011;66564;42.482;25.548;2024-02-04T14:24:07;2.45;;;1.80;;
77466;SDS011;66564;42.482;25.548;2024-02-04T14:26:33;3.05;;;1.60;;
77466;SDS011;66564;42.482;25.548;2024-02-04T14:28:59;2.30;;;1.85;;
77466;SDS011;66564;42.482;25.548;2024-02-04T14:31:25;3.67;;;2.17;;
77466;SDS011;66564;42.482;25.548;2024-02-04T14:33:51;2.60;;;1.70;;
77466;SDS011;66564;42.482;25.548;2024-02-04T14:36:16;2.83;;;1.73;;
77466;SDS011;66564;42.482;25.548;2024-02-04T14:38:42;2.60;;;2.00;;
77466;SDS011;66564;42.482;25.548;2024-02-04T14:41:08;2.78;;;1.77;;
77466;SDS011;66564;42.482;25.548;2024-02-04T14:43:35;2.58;;;1.95;;
77466;SDS011;66564;42.482;25.548;2024-02-04T14:46:01;2.67;;;1.83;;
77466;SDS011;66564;42.482;25.548;2024-02-04T14:48:26;3.17;;;1.95;;
77466;SDS011;66564;42.482;25.548;2024-02-04T14:50:52;2.60;;;1.92;;